Terminal Aerodrome Forecast
Issued by NWS

Home | Current Version | Previous Version | Text Only | Print | Product List | Glossary On
Versions: 1 2 3 4 5 6 7 8 9 10 11 12 13
000
FTUS42 TJSJ 142300 RRA
TAFIST
TAF
TIST 142339Z 1500/1524 08010KT P6SM VCSH FEW025 SCT050 BKN090
     FM150430 07007KT P6SM -RA SCT022 SCT050 SCT100
      TEMPO 1506/1510 VRB12KT -SHRA BKN022
     FM151430 10012G20KT P6SM FEW030 SCT060=

USA.gov is the U.S. government's official web portal to all federal, state and local government web resources and services.